createdAt,value
2023-05-02T00:01:30.077Z,42.40
2023-05-02T00:06:34.286Z,41.90
2023-05-02T00:11:38.862Z,42.00
2023-05-02T00:16:42.001Z,42.10
2023-05-02T00:21:48.223Z,42.10
2023-05-02T00:26:52.687Z,42.10
2023-05-02T00:31:55.926Z,42.20
2023-05-02T00:36:59.220Z,42.00
2023-05-02T00:42:04.094Z,41.90
2023-05-02T00:47:07.190Z,42.00
2023-05-02T00:52:10.331Z,41.70
2023-05-02T00:57:14.871Z,41.60
2023-05-02T01:02:33.708Z,41.90
2023-05-02T01:07:59.809Z,42.30
2023-05-02T01:13:08.930Z,42.20
2023-05-02T01:18:14.703Z,41.90
2023-05-02T01:23:27.009Z,41.80
2023-05-02T01:28:39.927Z,42.00
2023-05-02T01:33:45.966Z,42.20
2023-05-02T01:38:49.781Z,41.80
2023-05-02T01:43:55.172Z,41.50
2023-05-02T01:49:03.079Z,41.50
2023-05-02T01:54:08.194Z,41.60
2023-05-02T01:59:14.185Z,41.30
2023-05-02T02:04:21.009Z,41.50
2023-05-02T02:09:24.119Z,41.80
2023-05-02T02:14:29.166Z,41.80
2023-05-02T02:19:34.453Z,41.70
2023-05-02T02:24:39.543Z,42.00
2023-05-02T02:29:42.644Z,42.20
2023-05-02T02:34:47.149Z,42.30
2023-05-02T02:39:59.731Z,42.80
2023-05-02T02:45:10.206Z,42.90
2023-05-02T02:50:21.355Z,43.00
2023-05-02T02:55:35.593Z,43.10
2023-05-02T03:00:39.487Z,43.20
2023-05-02T03:05:44.969Z,42.80
2023-05-02T03:10:48.298Z,43.60
2023-05-02T03:16:33.754Z,42.70
2023-05-02T03:21:39.742Z,43.70
2023-05-02T03:26:42.835Z,43.10
2023-05-02T03:31:46.008Z,42.80
2023-05-02T03:36:50.575Z,42.90
2023-05-02T03:41:54.045Z,43.50
2023-05-02T03:46:57.174Z,43.40
2023-05-02T03:52:01.998Z,43.10
2023-05-02T03:57:05.442Z,43.80
2023-05-02T04:02:08.809Z,43.30
2023-05-02T04:07:18.257Z,43.50
2023-05-02T04:12:21.670Z,43.90
2023-05-02T04:17:24.908Z,43.80
2023-05-02T04:22:29.386Z,43.80
2023-05-02T04:27:32.461Z,44.10
2023-05-02T04:32:35.649Z,43.80
2023-05-02T04:37:40.217Z,43.90
2023-05-02T04:42:43.301Z,44.30
2023-05-02T04:47:46.422Z,43.90
2023-05-02T04:52:50.913Z,43.90
2023-05-02T04:57:54.001Z,44.40
2023-05-02T05:02:59.186Z,44.10
2023-05-02T05:08:05.614Z,44.00
2023-05-02T05:13:08.744Z,44.50
2023-05-02T05:18:11.925Z,44.10
2023-05-02T05:23:16.504Z,44.30
2023-05-02T05:28:19.728Z,44.80
2023-05-02T05:33:23.240Z,44.50
2023-05-02T05:38:28.032Z,44.50
2023-05-02T05:43:31.380Z,45.00
2023-05-02T05:48:34.670Z,44.60
2023-05-02T05:53:39.453Z,44.60
2023-05-02T05:58:44.164Z,44.70
2023-05-02T06:03:47.622Z,44.40
2023-05-02T06:08:52.435Z,44.40
2023-05-02T06:13:55.808Z,44.50
2023-05-02T06:18:58.956Z,44.30
2023-05-02T06:24:03.623Z,44.40
2023-05-02T06:29:06.693Z,44.60
2023-05-02T06:34:09.790Z,44.40
2023-05-02T06:39:14.261Z,44.50
2023-05-02T06:44:17.493Z,44.60
2023-05-02T06:49:20.582Z,44.40
2023-05-02T06:54:25.197Z,44.70
2023-05-02T06:59:28.400Z,45.40
2023-05-02T07:04:31.590Z,45.20
2023-05-02T07:09:36.108Z,45.10
2023-05-02T07:14:39.753Z,45.40
2023-05-02T07:19:45.235Z,45.10
2023-05-02T07:24:50.015Z,45.10
2023-05-02T07:29:53.155Z,45.10
2023-05-02T07:34:57.101Z,44.70
2023-05-02T07:40:02.161Z,44.50
2023-05-02T07:45:06.419Z,44.60
2023-05-02T07:50:10.263Z,44.60
2023-05-02T07:55:15.233Z,44.70
2023-05-02T08:00:19.030Z,44.70
2023-05-02T08:05:22.426Z,44.50
2023-05-02T08:10:27.877Z,44.40
2023-05-02T08:15:31.453Z,44.40
2023-05-02T08:20:34.530Z,44.50
2023-05-02T08:25:39.003Z,44.60
2023-05-02T08:30:42.172Z,44.70
2023-05-02T08:35:45.603Z,44.80
2023-05-02T08:40:50.383Z,44.60
2023-05-02T08:45:57.748Z,44.30
2023-05-02T08:51:01.607Z,44.80
2023-05-02T08:56:07.500Z,44.50
2023-05-02T09:01:14.102Z,44.80
2023-05-02T09:06:18.904Z,44.70
2023-05-02T09:11:23.585Z,44.50
2023-05-02T09:16:28.503Z,44.20
2023-05-02T09:21:38.097Z,44.10
2023-05-02T09:26:42.593Z,44.30
2023-05-02T09:31:55.610Z,44.20
2023-05-02T09:36:59.856Z,44.50
2023-05-02T09:42:04.589Z,44.10
2023-05-02T09:47:09.484Z,44.10
2023-05-02T09:52:13.284Z,44.50
2023-05-02T09:57:17.969Z,44.40
2023-05-02T10:02:23.063Z,44.50
2023-05-02T10:07:27.308Z,44.30
2023-05-02T10:12:34.123Z,44.60
2023-05-02T10:17:43.155Z,44.20
2023-05-02T10:22:48.474Z,43.50
2023-05-02T10:27:53.322Z,43.60
2023-05-02T10:33:00.807Z,43.30
2023-05-02T10:38:04.802Z,43.60
2023-05-02T10:43:09.771Z,43.70
2023-05-02T10:48:20.649Z,43.70
2023-05-02T10:53:32.310Z,43.50
2023-05-02T10:58:37.465Z,43.00
2023-05-02T11:03:57.438Z,43.30
2023-05-02T11:09:37.041Z,42.50
2023-05-02T11:14:48.786Z,42.50
2023-05-02T11:20:28.611Z,42.40
2023-05-02T11:25:39.835Z,42.70
2023-05-02T11:30:50.978Z,42.40
2023-05-02T11:35:54.138Z,42.10
2023-05-02T11:40:59.928Z,42.10
2023-05-02T11:46:06.089Z,42.30
2023-05-02T11:51:09.218Z,42.20
2023-05-02T11:56:12.607Z,42.30
2023-05-02T12:01:17.873Z,42.50
2023-05-02T12:06:21.091Z,42.40
2023-05-02T12:11:25.775Z,42.30
2023-05-02T12:16:31.209Z,42.60
2023-05-02T12:21:34.848Z,42.60
2023-05-02T12:26:38.032Z,42.80
2023-05-02T12:31:52.252Z,42.70
2023-05-02T12:36:55.442Z,42.70
2023-05-02T12:41:58.575Z,42.20
2023-05-02T12:47:03.231Z,41.80
2023-05-02T12:52:06.835Z,41.80
2023-05-02T12:57:10.170Z,42.00
2023-05-02T13:02:14.819Z,41.60
2023-05-02T13:07:17.998Z,41.10
2023-05-02T13:12:21.519Z,41.30
2023-05-02T13:17:26.120Z,41.30
2023-05-02T13:22:30.051Z,41.10
2023-05-02T13:27:34.246Z,41.00
2023-05-02T13:32:39.821Z,41.00
2023-05-02T13:37:42.991Z,40.60
2023-05-02T13:42:46.450Z,40.80
2023-05-02T13:47:51.178Z,40.50
2023-05-02T13:52:54.364Z,39.50
2023-05-02T13:57:57.533Z,39.50
2023-05-02T14:03:02.133Z,39.70
2023-05-02T14:08:05.619Z,38.90
2023-05-02T14:13:08.808Z,39.50
2023-05-02T14:18:13.673Z,39.00
2023-05-02T14:23:16.982Z,38.60
2023-05-02T14:28:20.090Z,38.90
2023-05-02T14:33:24.541Z,38.50
2023-05-02T14:38:27.684Z,37.90
2023-05-02T14:43:31.039Z,38.10
2023-05-02T14:48:35.499Z,38.00
2023-05-02T14:53:39.337Z,36.40
2023-05-02T14:58:42.419Z,35.50
2023-05-02T15:04:04.263Z,35.90
2023-05-02T15:09:08.852Z,35.60
2023-05-02T15:14:11.990Z,36.70
2023-05-02T15:19:18.741Z,36.70
2023-05-02T15:24:21.984Z,37.10
2023-05-02T15:29:25.148Z,37.60
2023-05-02T15:34:30.172Z,38.00
2023-05-02T15:39:33.240Z,38.40
2023-05-02T15:44:37.266Z,38.40
2023-05-02T15:49:41.761Z,38.70
2023-05-02T15:54:44.838Z,39.00
2023-05-02T15:59:47.936Z,39.00
2023-05-02T16:04:52.390Z,39.40
2023-05-02T16:09:55.461Z,38.80
2023-05-02T16:14:58.580Z,39.10
2023-05-02T16:20:03.442Z,39.10
2023-05-02T16:25:07.483Z,39.30
2023-05-02T16:30:11.711Z,39.50
2023-05-02T16:35:16.238Z,39.50
2023-05-02T16:40:19.450Z,39.00
2023-05-02T16:45:22.839Z,39.10
2023-05-02T16:50:27.383Z,39.50
2023-05-02T16:55:30.530Z,39.20
2023-05-02T17:00:34.100Z,39.10
2023-05-02T17:05:38.688Z,39.50
2023-05-02T17:10:41.793Z,39.60
2023-05-02T17:15:44.885Z,39.50
2023-05-02T17:20:49.928Z,39.50
2023-05-02T17:25:53.161Z,39.70
2023-05-02T17:30:59.265Z,40.00
2023-05-02T17:36:04.241Z,40.00
2023-05-02T17:41:07.352Z,40.10
2023-05-02T17:46:10.823Z,40.10
2023-05-02T17:51:15.385Z,40.10
2023-05-02T17:56:18.994Z,40.10
2023-05-02T18:01:22.198Z,40.00
2023-05-02T18:06:27.485Z,39.90
2023-05-02T18:11:32.125Z,40.00
2023-05-02T18:16:36.317Z,39.60
2023-05-02T18:21:40.975Z,39.60
2023-05-02T18:26:44.048Z,39.70
2023-05-02T18:31:52.387Z,39.70
2023-05-02T18:37:01.644Z,39.70
2023-05-02T18:42:06.131Z,40.10
2023-05-02T18:47:09.860Z,40.10
2023-05-02T18:52:14.385Z,40.20
2023-05-02T18:57:17.643Z,40.30
2023-05-02T19:02:21.948Z,40.20
2023-05-02T19:07:27.870Z,40.30
2023-05-02T19:12:31.041Z,40.50
2023-05-02T19:17:34.221Z,40.40
2023-05-02T19:22:38.897Z,40.40
2023-05-02T19:27:42.477Z,41.00
2023-05-02T19:32:45.649Z,40.60
2023-05-02T19:37:50.311Z,40.60
2023-05-02T19:42:53.512Z,40.90
2023-05-02T19:47:56.696Z,40.80
2023-05-02T19:53:01.659Z,41.00
2023-05-02T19:58:04.770Z,41.00
2023-05-02T20:03:08.583Z,40.80
2023-05-02T20:08:16.756Z,40.90
2023-05-02T20:13:19.964Z,41.60
2023-05-02T20:18:23.142Z,41.10
2023-05-02T20:23:27.812Z,41.10
2023-05-02T20:28:31.075Z,41.30
2023-05-02T20:33:44.329Z,41.10
2023-05-02T20:38:49.679Z,40.90
2023-05-02T20:43:54.538Z,41.80
2023-05-02T20:48:59.394Z,41.00
2023-05-02T20:54:03.875Z,40.90
2023-05-02T20:59:06.962Z,40.80
2023-05-02T21:04:10.094Z,40.70
2023-05-02T21:09:15.298Z,40.70
2023-05-02T21:14:18.636Z,40.50
2023-05-02T21:19:22.064Z,40.30
2023-05-02T21:24:26.778Z,40.40
2023-05-02T21:29:29.873Z,40.40
2023-05-02T21:34:32.979Z,40.30
2023-05-02T21:39:38.581Z,40.50
2023-05-02T21:44:41.679Z,40.50
2023-05-02T21:49:44.801Z,40.30
2023-05-02T21:54:51.676Z,39.90
2023-05-02T21:59:55.928Z,39.70
2023-05-02T22:04:59.077Z,39.50
2023-05-02T22:10:04.090Z,39.50
2023-05-02T22:15:11.706Z,39.60
2023-05-02T22:20:15.117Z,39.80
2023-05-02T22:25:20.057Z,39.60
2023-05-02T22:30:23.390Z,39.60
2023-05-02T22:35:26.661Z,39.60
2023-05-02T22:40:32.303Z,39.50
2023-05-02T22:45:36.754Z,39.40
2023-05-02T22:50:40.160Z,39.60
2023-05-02T22:55:44.677Z,39.60
2023-05-02T23:00:47.805Z,40.10
2023-05-02T23:05:51.055Z,40.10
2023-05-02T23:10:56.051Z,40.00
2023-05-02T23:15:59.485Z,40.30
2023-05-02T23:21:04.437Z,40.30
2023-05-02T23:26:10.741Z,40.30
2023-05-02T23:31:14.176Z,40.20
2023-05-02T23:36:17.555Z,40.10
2023-05-02T23:41:22.638Z,40.00
2023-05-02T23:46:26.033Z,40.00
2023-05-02T23:51:29.535Z,39.80
2023-05-02T23:56:34.088Z,39.50
